CWH4 weather

Winchester District Memorial Hospital Heliport
Ottawa, Ontario, Canada

Public forecast

Using degrees Celsius for public forecast. Weather courtesy of forecast.io.

METAR (pilot weather report)

Closest report is Ottawa Macdonald-Cartier International Airport, 19.4 nm (35.9 km) NW. Retrieved 2019/05/20 07:06 UTC (1 hour ago):

CYOW 200706Z 00000KT 3/4SM R32/5000VP6000FT/D R07/P6000FT/D BR VV003 12/12 A2966 RMK FG8 CIG VRB 1-5 SLP047 DENSITY ALT 500FT

TAF (pilot weather forecast)

Closest forecast is Ottawa Macdonald-Cartier International Airport, 19.4 nm (35.9 km) NW. Retrieved 2019/05/20 06:42 UTC (2 hours ago):

TAF CYOW 200538Z 2006/2106 13005KT P6SM FEW003 SCT050 TEMPO 2006/2009 2SM BR BKN003 BKN050 BECMG 2006/2008 21008KT FM201100 21010KT P6SM SCT012 BKN080 TEMPO 2011/2014 6SM -SHRA BR BKN012 OVC050 PROB30 2011/2014 5SM -SHRA BR BKN006 OVC050 FM201400 22012G22KT P6SM BKN025 BKN070 TEMPO 2014/2017 OVC020 FM201700 24018G30KT P6SM FEW025 BKN050 TEMPO 2017/2021 P6SM -SHRA FM210100 29015G25KT 6SM -RA BR BKN020 OVC040 FM210400 30012G22KT P6SM SCT020 BKN040 RMK NXT FCST BY 200900Z